Richboro, Pennsylvania
Current Conditions -  °F | °C
As of 12:54 AM on Saturday 29 Nov 2014 (Local Time) from KPNE Reporting Station
Few Clouds Few Clouds  
Wind Chill: 27°   Ceiling: Unl
Heat Index: 27°   Visibility: 10mi
Dew Point: 17°   Wind: 3mph
Humidity: 66%   Direction: 260°W
Pressure: 30.31"   Gusts: NA
Location:  40.21°N, 75.01°W
Report Text: KPNE 290554Z AUTO 26003KT 10SM FEW120 M03/M08 A3031 RMK AO2 SLP264 T10281083 10000 21033 53005 TSNO
Loading
Personal Weather Stations






























Interactive Weather Map New forecast layout! Learn more

10-Day Weather Forecast

Advertisements
Track Severe Weather on mobile